Terminal Aerodrome Forecast
Issued by NWS

Home | Current Version | Previous Version | Text Only | Print | Product List | Glossary Off
Versions: 1 2 3 4 5 6 7 8 9 10 11 12 13 14 15 16 17 18 19 20 21 22 23

000
FTUS43 KUNR 242327
TAFGCC
TAF
KGCC 242327Z 2500/2524 04010KT P6SM -SHRA SCT015 OVC040
      TEMPO 2500/2504 4SM -SHRA SCT008 OVC015
     FM250400 35009KT 2SM -RA BR OVC007
     FM251600 34009KT P6SM OVC015=

USA.gov is the U.S. government's official web portal to all federal, state and local government web resources and services.